createdAt,value
2023-05-16T00:00:00.888Z,14.56
2023-05-16T00:01:00.903Z,14.98
2023-05-16T00:02:01.036Z,14.80
2023-05-16T00:03:01.043Z,14.86
2023-05-16T00:04:01.050Z,14.78
2023-05-16T00:05:00.955Z,14.41
2023-05-16T00:06:00.988Z,14.18
2023-05-16T00:07:00.978Z,14.33
2023-05-16T00:08:01.063Z,14.04
2023-05-16T00:09:01.035Z,14.12
2023-05-16T00:10:01.054Z,14.38
2023-05-16T00:11:01.117Z,14.21
2023-05-16T00:12:01.088Z,14.32
2023-05-16T00:13:01.120Z,13.84
2023-05-16T00:14:01.120Z,13.88
2023-05-16T00:15:01.140Z,14.05
2023-05-16T00:16:01.150Z,14.36
2023-05-16T00:17:01.222Z,14.51
2023-05-16T00:18:01.308Z,14.72
2023-05-16T00:19:01.476Z,14.67
2023-05-16T00:20:01.221Z,14.64
2023-05-16T00:21:01.236Z,14.72
2023-05-16T00:22:01.258Z,14.66
2023-05-16T00:23:01.481Z,14.61
2023-05-16T00:24:01.310Z,14.76
2023-05-16T00:25:01.318Z,14.50
2023-05-16T00:26:01.350Z,14.60
2023-05-16T00:27:01.351Z,14.66
2023-05-16T00:28:01.346Z,14.73
2023-05-16T00:29:01.372Z,13.86
2023-05-16T00:30:01.363Z,13.61
2023-05-16T00:31:01.376Z,14.19
2023-05-16T00:32:01.460Z,13.88
2023-05-16T00:33:01.483Z,14.20
2023-05-16T00:34:01.501Z,13.78
2023-05-16T00:35:01.440Z,13.81
2023-05-16T00:36:01.475Z,14.09
2023-05-16T00:37:01.471Z,14.15
2023-05-16T00:38:01.506Z,13.80
2023-05-16T00:39:01.527Z,13.88
2023-05-16T00:40:01.535Z,14.24
2023-05-16T00:41:01.557Z,13.84
2023-05-16T00:42:01.578Z,13.84
2023-05-16T00:43:01.577Z,13.71
2023-05-16T00:44:01.619Z,13.76
2023-05-16T00:45:01.602Z,13.24
2023-05-16T00:46:01.662Z,13.76
2023-05-16T00:47:01.671Z,13.35
2023-05-16T00:48:01.795Z,13.31
2023-05-16T00:49:01.700Z,13.81
2023-05-16T00:50:01.726Z,13.78
2023-05-16T00:51:01.733Z,13.25
2023-05-16T00:52:01.757Z,13.66
2023-05-16T00:53:01.800Z,12.90
2023-05-16T00:54:01.805Z,13.54
2023-05-16T00:55:01.798Z,13.57
2023-05-16T00:56:01.851Z,13.71
2023-05-16T00:57:01.884Z,13.14
2023-05-16T00:58:01.936Z,13.06
2023-05-16T00:59:01.919Z,13.26
2023-05-16T01:00:01.961Z,13.09
2023-05-16T01:01:01.944Z,13.28
2023-05-16T01:02:02.244Z,13.28
2023-05-16T01:03:02.058Z,13.11
2023-05-16T01:04:02.119Z,13.35
2023-05-16T01:05:01.980Z,12.86
2023-05-16T01:06:02.005Z,12.70
2023-05-16T01:07:02.076Z,12.67
2023-05-16T01:08:02.086Z,12.57
2023-05-16T01:09:02.042Z,12.84
2023-05-16T01:10:02.131Z,12.65
2023-05-16T01:11:02.116Z,12.92
2023-05-16T01:12:02.238Z,12.96
2023-05-16T01:13:02.184Z,12.72
2023-05-16T01:14:02.153Z,12.33
2023-05-16T01:15:02.184Z,12.66
2023-05-16T01:16:02.222Z,12.83
2023-05-16T01:17:02.209Z,12.87
2023-05-16T01:18:02.350Z,13.04
2023-05-16T01:19:02.272Z,12.75
2023-05-16T01:20:02.291Z,12.78
2023-05-16T01:21:02.276Z,12.68
2023-05-16T01:22:02.323Z,12.69
2023-05-16T01:23:02.328Z,12.60
2023-05-16T01:24:02.357Z,12.73
2023-05-16T01:25:02.384Z,12.24
2023-05-16T01:26:02.411Z,12.18
2023-05-16T01:27:02.383Z,12.31
2023-05-16T01:28:02.421Z,12.12
2023-05-16T01:29:02.460Z,11.92
2023-05-16T01:30:02.453Z,12.40
2023-05-16T01:31:02.577Z,12.41
2023-05-16T01:32:02.661Z,12.10
2023-05-16T01:33:02.518Z,12.00
2023-05-16T01:34:02.544Z,11.71
2023-05-16T01:35:02.576Z,11.85
2023-05-16T01:36:02.569Z,11.56
2023-05-16T01:37:02.599Z,12.08
2023-05-16T01:38:02.622Z,11.89
2023-05-16T01:39:02.633Z,12.03
2023-05-16T01:40:02.657Z,11.68
2023-05-16T01:41:02.653Z,11.96
2023-05-16T01:42:02.677Z,11.94
2023-05-16T01:43:02.687Z,11.87
2023-05-16T01:44:02.700Z,11.91
2023-05-16T01:45:02.716Z,12.03
2023-05-16T01:46:02.768Z,11.90
2023-05-16T01:47:02.882Z,11.46
2023-05-16T01:48:02.834Z,11.40
2023-05-16T01:49:02.809Z,11.39
2023-05-16T01:50:02.844Z,11.63
2023-05-16T01:51:02.854Z,11.64
2023-05-16T01:52:02.877Z,11.48
2023-05-16T01:53:02.910Z,11.27
2023-05-16T01:54:02.909Z,11.22
2023-05-16T01:55:02.937Z,11.11
2023-05-16T01:56:02.929Z,11.30
2023-05-16T01:57:02.987Z,11.35
2023-05-16T01:58:03.004Z,11.11
2023-05-16T01:59:02.985Z,11.08
2023-05-16T02:00:03.010Z,10.80
2023-05-16T02:01:03.082Z,11.00
2023-05-16T02:02:03.048Z,10.90
2023-05-16T02:03:03.155Z,10.77
2023-05-16T02:04:03.180Z,10.84
2023-05-16T02:05:03.114Z,10.96
2023-05-16T02:06:03.106Z,10.73
2023-05-16T02:07:03.126Z,11.10
2023-05-16T02:08:03.166Z,11.10
2023-05-16T02:09:03.136Z,10.56
2023-05-16T02:10:03.145Z,10.81
2023-05-16T02:11:03.202Z,10.72
2023-05-16T02:12:03.195Z,10.95
2023-05-16T02:13:03.208Z,10.92
2023-05-16T02:14:03.259Z,10.84
2023-05-16T02:15:03.268Z,10.86
2023-05-16T02:16:03.269Z,11.02
2023-05-16T02:17:03.380Z,10.66
2023-05-16T02:18:03.384Z,10.87
2023-05-16T02:19:03.366Z,10.84
2023-05-16T02:20:03.335Z,10.71
2023-05-16T02:21:03.340Z,10.81
2023-05-16T02:22:03.355Z,10.91
2023-05-16T02:23:03.409Z,10.66
2023-05-16T02:24:03.435Z,10.86
2023-05-16T02:25:03.428Z,10.79
2023-05-16T02:26:03.434Z,10.91
2023-05-16T02:27:03.443Z,10.46
2023-05-16T02:28:03.516Z,10.39
2023-05-16T02:29:03.513Z,10.60
2023-05-16T02:30:03.546Z,10.68
2023-05-16T02:31:03.579Z,10.80
2023-05-16T02:32:03.649Z,10.75
2023-05-16T02:33:03.646Z,10.70
2023-05-16T02:34:03.616Z,10.86
2023-05-16T02:35:03.625Z,10.60
2023-05-16T02:36:03.658Z,10.71
2023-05-16T02:37:03.697Z,10.50
2023-05-16T02:38:03.708Z,10.64
2023-05-16T02:39:03.742Z,10.37
2023-05-16T02:40:03.735Z,10.71
2023-05-16T02:41:03.757Z,10.56
2023-05-16T02:42:03.790Z,10.34
2023-05-16T02:43:03.794Z,10.46
2023-05-16T02:44:03.868Z,10.78
2023-05-16T02:45:03.857Z,10.53
2023-05-16T02:46:03.953Z,10.17
2023-05-16T02:47:03.906Z,10.62
2023-05-16T02:48:03.912Z,10.53
2023-05-16T02:49:03.948Z,10.35
2023-05-16T02:50:03.961Z,10.31
2023-05-16T02:51:03.954Z,10.44
2023-05-16T02:52:04.002Z,10.31
2023-05-16T02:53:03.993Z,10.20
2023-05-16T02:54:04.029Z,10.21
2023-05-16T02:55:21.147Z,10.51
2023-05-16T02:56:05.075Z,10.52
2023-05-16T02:57:04.030Z,10.53
2023-05-16T02:58:04.038Z,10.56
2023-05-16T02:59:04.043Z,10.42
2023-05-16T03:00:04.024Z,10.49
2023-05-16T03:01:04.006Z,10.59
2023-05-16T03:02:04.177Z,10.34
2023-05-16T03:03:04.053Z,10.46
2023-05-16T03:04:04.057Z,10.47
2023-05-16T03:05:03.973Z,10.30
2023-05-16T03:06:03.992Z,10.45
2023-05-16T03:07:03.982Z,10.09
2023-05-16T03:08:03.930Z,9.99
2023-05-16T03:09:03.971Z,10.16
2023-05-16T03:10:03.931Z,10.31
2023-05-16T03:11:03.906Z,10.28
2023-05-16T03:12:04.251Z,10.13
2023-05-16T03:13:03.904Z,10.29
2023-05-16T03:14:03.885Z,10.12
2023-05-16T03:15:03.880Z,10.45
2023-05-16T03:16:03.900Z,10.14
2023-05-16T03:17:03.861Z,10.11
2023-05-16T03:18:03.930Z,10.06
2023-05-16T03:19:03.886Z,10.08
2023-05-16T03:20:03.888Z,9.82
2023-05-16T03:21:03.932Z,10.07
2023-05-16T03:22:04.067Z,9.90
2023-05-16T03:23:04.014Z,10.10
2023-05-16T03:24:04.029Z,10.10
2023-05-16T03:25:04.034Z,10.12
2023-05-16T03:26:04.031Z,9.80
2023-05-16T03:27:04.056Z,9.99
2023-05-16T03:28:04.066Z,10.11
2023-05-16T03:29:04.093Z,9.92
2023-05-16T03:30:04.110Z,9.94
2023-05-16T03:31:04.160Z,9.67
2023-05-16T03:32:04.245Z,9.78
2023-05-16T03:33:04.252Z,9.94
2023-05-16T03:34:04.175Z,9.85
2023-05-16T03:35:04.206Z,9.62
2023-05-16T03:36:04.229Z,9.87
2023-05-16T03:37:04.258Z,9.82
2023-05-16T03:38:04.276Z,9.72
2023-05-16T03:39:04.297Z,9.67
2023-05-16T03:40:04.297Z,9.58
2023-05-16T03:41:04.348Z,9.66
2023-05-16T03:42:04.354Z,9.59
2023-05-16T03:43:04.392Z,9.42
2023-05-16T03:44:04.404Z,9.56
2023-05-16T03:45:04.409Z,9.63
2023-05-16T03:46:04.505Z,9.74
2023-05-16T03:47:04.447Z,9.52
2023-05-16T03:48:04.526Z,9.63
2023-05-16T03:49:04.508Z,9.67
2023-05-16T03:50:04.607Z,9.65
2023-05-16T03:51:04.553Z,9.46
2023-05-16T03:52:04.556Z,9.62
2023-05-16T03:53:04.591Z,9.49
2023-05-16T03:54:04.606Z,9.91
2023-05-16T03:55:04.626Z,9.76
2023-05-16T03:56:04.635Z,9.70
2023-05-16T03:57:04.684Z,9.57
2023-05-16T03:58:04.680Z,9.45
2023-05-16T03:59:04.742Z,9.40
2023-05-16T04:00:04.737Z,9.39
2023-05-16T04:01:04.800Z,9.50
2023-05-16T04:02:04.787Z,9.42
2023-05-16T04:03:04.858Z,9.32
2023-05-16T04:04:04.845Z,9.38
2023-05-16T04:05:04.874Z,9.52
2023-05-16T04:06:04.928Z,9.50
2023-05-16T04:07:04.896Z,9.41
2023-05-16T04:08:04.921Z,9.40
2023-05-16T04:09:05.036Z,9.35
2023-05-16T04:10:05.015Z,9.34
2023-05-16T04:11:04.962Z,9.23
2023-05-16T04:12:04.997Z,9.35
2023-05-16T04:13:05.018Z,9.16
2023-05-16T04:14:05.115Z,9.20
2023-05-16T04:15:05.070Z,8.92
2023-05-16T04:16:05.846Z,9.08
2023-05-16T04:17:05.207Z,9.15
2023-05-16T04:18:05.270Z,9.03
2023-05-16T04:19:05.245Z,9.12
2023-05-16T04:20:05.192Z,8.96
2023-05-16T04:21:05.225Z,9.07
2023-05-16T04:22:05.214Z,9.06
2023-05-16T04:23:05.217Z,8.88
2023-05-16T04:24:05.261Z,9.03
2023-05-16T04:25:05.257Z,9.08
2023-05-16T04:26:05.296Z,9.08
2023-05-16T04:27:05.357Z,8.94
2023-05-16T04:28:05.358Z,9.14
2023-05-16T04:29:05.363Z,9.08
2023-05-16T04:30:05.386Z,9.25
2023-05-16T04:31:05.455Z,8.84
2023-05-16T04:32:05.502Z,8.89
2023-05-16T04:33:05.532Z,9.00
2023-05-16T04:34:05.468Z,9.01
2023-05-16T04:35:05.496Z,8.84
2023-05-16T04:36:05.504Z,8.75
2023-05-16T04:37:05.493Z,8.92
2023-05-16T04:38:05.542Z,8.83
2023-05-16T04:39:05.543Z,8.75
2023-05-16T04:40:05.571Z,8.63
2023-05-16T04:41:05.577Z,8.70
2023-05-16T04:42:05.600Z,8.67
2023-05-16T04:43:05.607Z,8.46
2023-05-16T04:44:05.637Z,8.51
2023-05-16T04:45:05.655Z,8.51
2023-05-16T04:46:05.691Z,8.42
2023-05-16T04:47:05.706Z,8.50
2023-05-16T04:48:05.730Z,8.25
2023-05-16T04:49:05.700Z,8.27
2023-05-16T04:50:05.740Z,8.11
2023-05-16T04:51:05.779Z,8.53
2023-05-16T04:52:05.804Z,7.99
2023-05-16T04:53:05.819Z,7.53
2023-05-16T04:54:05.896Z,7.30
2023-05-16T04:55:05.836Z,7.22
2023-05-16T04:56:05.835Z,7.17
2023-05-16T04:57:05.869Z,7.08
2023-05-16T04:58:05.861Z,7.03
2023-05-16T04:59:05.889Z,7.01
2023-05-16T05:00:05.891Z,7.06
2023-05-16T05:02:24.861Z,0.50
2023-05-16T05:03:24.788Z,0.50
2023-05-16T05:04:24.841Z,0.50
2023-05-16T05:05:24.804Z,0.50
2023-05-16T05:06:24.782Z,0.50
2023-05-16T05:07:24.785Z,0.50
2023-05-16T05:08:24.756Z,0.51
2023-05-16T05:09:24.770Z,0.52
2023-05-16T05:10:24.739Z,0.51
2023-05-16T05:11:24.737Z,0.50
2023-05-16T05:12:24.719Z,0.50
2023-05-16T05:13:24.772Z,0.51
2023-05-16T05:14:24.725Z,0.51
2023-05-16T05:15:24.955Z,0.51
2023-05-16T05:16:24.697Z,0.51
2023-05-16T05:17:24.789Z,0.50
2023-05-16T05:18:24.702Z,0.51
2023-05-16T05:19:24.745Z,0.50
2023-05-16T05:20:24.679Z,0.51
2023-05-16T05:21:24.673Z,0.51
2023-05-16T05:22:24.683Z,0.51
2023-05-16T05:23:24.654Z,0.51
2023-05-16T05:24:24.709Z,0.52
2023-05-16T05:25:24.730Z,0.51
2023-05-16T05:26:24.645Z,0.52
2023-05-16T05:27:24.625Z,0.50
2023-05-16T05:28:24.618Z,0.51
2023-05-16T05:29:24.613Z,0.51
2023-05-16T05:30:24.641Z,0.51
2023-05-16T05:31:24.776Z,0.52
2023-05-16T05:32:24.669Z,0.53
2023-05-16T05:33:24.624Z,0.59
2023-05-16T05:34:25.011Z,0.67
2023-05-16T05:35:24.778Z,0.68
2023-05-16T05:36:24.563Z,0.71
2023-05-16T05:37:24.590Z,0.71
2023-05-16T05:38:24.564Z,0.76
2023-05-16T05:39:24.556Z,0.75
2023-05-16T05:40:24.540Z,0.81
2023-05-16T05:41:24.542Z,0.91
2023-05-16T05:42:24.544Z,0.93
2023-05-16T05:43:24.540Z,0.95
2023-05-16T05:44:24.978Z,1.05
2023-05-16T05:45:24.523Z,1.12
2023-05-16T05:46:31.666Z,1.21
2023-05-16T05:47:24.532Z,1.21
2023-05-16T05:48:24.470Z,1.22
2023-05-16T05:49:24.564Z,1.26
2023-05-16T05:50:24.488Z,1.31
2023-05-16T05:51:24.451Z,1.43
2023-05-16T05:52:24.464Z,1.45
2023-05-16T05:53:24.515Z,1.52
2023-05-16T05:54:24.441Z,1.56
2023-05-16T05:55:24.457Z,1.59
2023-05-16T05:56:24.403Z,1.55
2023-05-16T05:57:24.435Z,1.58
2023-05-16T05:58:24.402Z,1.57
2023-05-16T05:59:24.476Z,1.57
2023-05-16T06:00:24.413Z,1.70
2023-05-16T06:01:24.418Z,1.66
2023-05-16T06:02:24.424Z,1.70
2023-05-16T06:03:24.399Z,1.66
2023-05-16T06:04:24.416Z,1.64
2023-05-16T06:05:24.436Z,1.65
2023-05-16T06:06:24.388Z,1.64
2023-05-16T06:07:24.349Z,1.66
2023-05-16T06:08:24.338Z,1.66
2023-05-16T06:09:24.334Z,1.71
2023-05-16T06:10:24.344Z,1.68
2023-05-16T06:11:24.338Z,1.65
2023-05-16T06:12:24.335Z,1.69
2023-05-16T06:13:24.290Z,1.72
2023-05-16T06:14:24.314Z,1.70
2023-05-16T06:15:24.389Z,1.68
2023-05-16T06:16:24.343Z,1.69
2023-05-16T06:17:24.359Z,1.66
2023-05-16T06:18:24.287Z,1.67
2023-05-16T06:19:24.341Z,1.68
2023-05-16T06:20:24.256Z,1.65
2023-05-16T06:21:24.248Z,1.70
2023-05-16T06:22:24.259Z,1.67
2023-05-16T06:23:24.268Z,1.67
2023-05-16T06:24:24.238Z,1.67
2023-05-16T06:25:24.310Z,1.66
2023-05-16T06:26:24.318Z,1.67
2023-05-16T06:27:24.357Z,1.66
2023-05-16T06:28:24.440Z,1.67
2023-05-16T06:29:24.489Z,1.69
2023-05-16T06:30:24.591Z,1.71
2023-05-16T06:31:24.661Z,1.66
2023-05-16T06:32:24.637Z,1.72
2023-05-16T06:33:24.679Z,1.74
2023-05-16T06:34:24.704Z,1.77
2023-05-16T06:35:24.781Z,1.84
2023-05-16T06:36:24.817Z,1.90
2023-05-16T06:37:24.892Z,1.91
2023-05-16T06:38:24.919Z,1.97
2023-05-16T06:39:25.000Z,2.05
2023-05-16T06:40:25.037Z,2.03
2023-05-16T06:41:25.102Z,2.07
2023-05-16T06:42:25.224Z,2.01
2023-05-16T06:43:25.229Z,2.04
2023-05-16T06:44:25.299Z,2.03
2023-05-16T06:45:25.754Z,2.04
2023-05-16T06:46:25.484Z,2.04
2023-05-16T06:47:25.511Z,2.04
2023-05-16T06:48:25.610Z,1.98
2023-05-16T06:49:25.600Z,1.95
2023-05-16T06:50:25.669Z,2.00
2023-05-16T06:51:25.689Z,1.92
2023-05-16T06:52:25.785Z,1.93
2023-05-16T06:53:25.874Z,1.87
2023-05-16T06:54:25.902Z,1.87
2023-05-16T06:55:26.069Z,1.79
2023-05-16T06:56:25.963Z,1.75
2023-05-16T06:57:26.237Z,1.77
2023-05-16T06:58:26.052Z,1.76
2023-05-16T06:59:28.070Z,1.72
2023-05-16T07:00:26.566Z,1.70
2023-05-16T07:01:26.266Z,1.72
2023-05-16T07:02:26.361Z,1.69
2023-05-16T07:03:26.511Z,1.66
2023-05-16T07:04:26.262Z,1.67
2023-05-16T07:05:26.816Z,1.65
2023-05-16T07:06:26.380Z,1.66
2023-05-16T07:07:26.587Z,1.66
2023-05-16T07:08:26.564Z,1.65
2023-05-16T07:09:26.562Z,1.58
2023-05-16T07:10:27.095Z,1.59
2023-05-16T07:11:26.614Z,1.58
2023-05-16T07:12:26.725Z,1.58
2023-05-16T07:13:26.794Z,1.56
2023-05-16T07:14:26.817Z,1.58
2023-05-16T07:15:27.314Z,1.55
2023-05-16T07:16:26.993Z,1.58
2023-05-16T07:17:27.021Z,1.59
2023-05-16T07:18:27.008Z,1.57
2023-05-16T07:19:27.236Z,1.59
2023-05-16T07:20:27.137Z,1.57
2023-05-16T07:21:27.237Z,1.58
2023-05-16T07:22:27.168Z,1.58
2023-05-16T07:23:27.244Z,1.58
2023-05-16T07:24:27.270Z,1.59
2023-05-16T07:25:27.793Z,1.64
2023-05-16T07:26:27.405Z,1.71
2023-05-16T07:27:27.756Z,1.72
2023-05-16T07:28:27.518Z,1.62
2023-05-16T07:29:27.556Z,1.47
2023-05-16T07:30:28.096Z,1.47
2023-05-16T07:31:27.662Z,1.55
2023-05-16T07:32:27.690Z,1.57
2023-05-16T07:33:27.704Z,1.72
2023-05-16T07:34:27.731Z,1.77
2023-05-16T07:35:28.218Z,1.77
2023-05-16T07:36:27.806Z,1.84
2023-05-16T07:37:28.131Z,1.85
2023-05-16T07:38:27.815Z,1.99
2023-05-16T07:39:27.831Z,2.03
2023-05-16T07:40:27.866Z,2.08
2023-05-16T07:41:27.837Z,2.18
2023-05-16T07:42:27.861Z,2.25
2023-05-16T07:43:28.436Z,2.26
2023-05-16T07:44:28.088Z,2.32
2023-05-16T07:45:28.296Z,2.38
2023-05-16T07:46:28.117Z,2.46
2023-05-16T07:47:28.125Z,2.48
2023-05-16T07:48:28.134Z,2.43
2023-05-16T07:49:28.140Z,2.57
2023-05-16T07:50:28.181Z,2.73
2023-05-16T07:51:28.148Z,2.74
2023-05-16T07:52:28.235Z,2.80
2023-05-16T07:53:28.214Z,2.87
2023-05-16T07:54:28.243Z,1.94
2023-05-16T07:55:28.443Z,1.59
2023-05-16T07:56:28.284Z,1.43
2023-05-16T07:57:28.293Z,1.35
2023-05-16T07:58:28.381Z,1.30
2023-05-16T07:59:28.452Z,1.21
2023-05-16T08:00:28.552Z,1.12
2023-05-16T08:01:28.575Z,1.02
2023-05-16T08:02:28.511Z,0.97
2023-05-16T08:03:28.631Z,1.10
2023-05-16T08:04:28.655Z,1.29
2023-05-16T08:05:28.810Z,1.41
2023-05-16T08:06:28.560Z,1.47
2023-05-16T08:07:28.601Z,1.54
2023-05-16T08:08:28.639Z,1.66
2023-05-16T08:09:28.688Z,1.71
2023-05-16T08:10:28.719Z,1.72
2023-05-16T08:11:28.690Z,1.72
2023-05-16T08:12:28.726Z,1.74
2023-05-16T08:13:28.779Z,1.72
2023-05-16T08:14:28.718Z,1.73
2023-05-16T08:15:29.157Z,1.73
2023-05-16T08:16:28.771Z,1.75
2023-05-16T08:17:28.788Z,1.72
2023-05-16T08:18:28.738Z,1.69
2023-05-16T08:19:28.940Z,1.71
2023-05-16T08:20:29.246Z,1.69
2023-05-16T08:21:29.016Z,1.69
2023-05-16T08:22:28.907Z,1.68
2023-05-16T08:23:28.955Z,1.67
2023-05-16T08:24:28.993Z,1.12
2023-05-16T08:25:29.259Z,1.25
2023-05-16T08:26:29.075Z,1.42
2023-05-16T08:27:29.176Z,1.44
2023-05-16T08:28:29.213Z,1.43
2023-05-16T08:29:29.215Z,1.44
2023-05-16T08:30:29.283Z,1.48
2023-05-16T08:31:29.362Z,1.56
2023-05-16T08:32:29.359Z,1.59
2023-05-16T08:33:29.369Z,1.70
2023-05-16T08:34:29.560Z,1.76
2023-05-16T08:35:29.543Z,1.81
2023-05-16T08:36:29.621Z,1.84
2023-05-16T08:37:29.520Z,1.89
2023-05-16T08:38:29.583Z,1.84
2023-05-16T08:39:29.559Z,1.94
2023-05-16T08:40:29.582Z,1.95
2023-05-16T08:41:30.085Z,1.95
2023-05-16T08:42:29.667Z,2.01
2023-05-16T08:43:29.759Z,1.93
2023-05-16T08:44:29.812Z,1.98
2023-05-16T08:45:30.053Z,2.04
2023-05-16T08:46:29.921Z,2.01
2023-05-16T08:47:30.017Z,2.00
2023-05-16T08:48:29.962Z,1.47
2023-05-16T08:49:30.095Z,0.96
2023-05-16T08:50:30.033Z,0.76
2023-05-16T08:51:30.150Z,0.67
2023-05-16T08:52:30.189Z,0.68
2023-05-16T08:53:30.178Z,0.68
2023-05-16T08:54:30.286Z,0.68
2023-05-16T08:55:30.420Z,0.70
2023-05-16T08:56:30.604Z,0.74
2023-05-16T08:57:30.373Z,0.87
2023-05-16T08:58:30.383Z,1.00
2023-05-16T08:59:30.437Z,1.10
2023-05-16T09:00:30.523Z,1.24
2023-05-16T09:01:30.699Z,1.04
2023-05-16T09:02:30.501Z,0.87
2023-05-16T09:03:30.515Z,1.11
2023-05-16T09:04:30.561Z,1.23
2023-05-16T09:05:30.519Z,1.23
2023-05-16T09:06:30.648Z,1.19
2023-05-16T09:07:30.520Z,1.19
2023-05-16T09:08:30.620Z,1.25
2023-05-16T09:09:31.508Z,1.29
2023-05-16T09:10:30.673Z,1.34
2023-05-16T09:11:30.714Z,1.38
2023-05-16T09:12:30.730Z,1.40
2023-05-16T09:13:30.747Z,1.46
2023-05-16T09:14:30.862Z,1.54
2023-05-16T09:15:30.766Z,1.57
2023-05-16T09:16:30.823Z,1.66
2023-05-16T09:17:39.002Z,1.75
2023-05-16T09:18:31.846Z,1.75
2023-05-16T09:19:30.911Z,1.76
2023-05-16T09:20:30.761Z,1.80
2023-05-16T09:21:31.252Z,1.88
2023-05-16T09:22:30.742Z,2.03
2023-05-16T09:23:30.702Z,2.05
2023-05-16T09:24:30.983Z,2.12
2023-05-16T09:25:31.764Z,2.17
2023-05-16T09:26:31.606Z,2.20
2023-05-16T09:27:30.724Z,2.23
2023-05-16T09:28:30.792Z,2.28
2023-05-16T09:29:30.818Z,2.38
2023-05-16T09:30:31.232Z,2.38
2023-05-16T09:31:31.312Z,2.46
2023-05-16T09:32:30.961Z,2.53
2023-05-16T09:33:30.960Z,2.54
2023-05-16T09:34:30.999Z,2.61
2023-05-16T09:35:44.030Z,2.67
2023-05-16T09:36:32.095Z,2.68
2023-05-16T09:37:31.069Z,2.69
2023-05-16T09:38:31.072Z,2.72
2023-05-16T09:39:31.047Z,2.80
2023-05-16T09:40:31.025Z,2.87
2023-05-16T09:41:31.147Z,2.72
2023-05-16T09:42:31.026Z,2.60
2023-05-16T09:43:31.080Z,2.54
2023-05-16T09:44:30.967Z,2.52
2023-05-16T09:45:31.036Z,2.45
2023-05-16T09:46:31.059Z,2.13
2023-05-16T09:47:31.032Z,2.22
2023-05-16T09:48:30.970Z,2.16
2023-05-16T09:49:30.990Z,2.09
2023-05-16T09:50:30.940Z,2.22
2023-05-16T09:51:30.950Z,2.23
2023-05-16T09:52:30.952Z,2.24
2023-05-16T09:53:31.007Z,2.21
2023-05-16T09:54:30.996Z,2.14
2023-05-16T09:55:31.029Z,2.04
2023-05-16T09:56:31.091Z,1.98
2023-05-16T09:57:31.055Z,2.02
2023-05-16T09:58:31.114Z,1.94
2023-05-16T09:59:31.102Z,1.90
2023-05-16T10:00:31.186Z,1.84
2023-05-16T10:01:31.154Z,1.82
2023-05-16T10:02:31.287Z,1.81
2023-05-16T10:03:31.256Z,1.83
2023-05-16T10:04:31.493Z,1.86
2023-05-16T10:05:31.310Z,1.86
2023-05-16T10:06:31.312Z,1.85
2023-05-16T10:07:31.376Z,1.82
2023-05-16T10:08:31.366Z,1.79
2023-05-16T10:09:31.448Z,1.80
2023-05-16T10:10:31.460Z,1.79
2023-05-16T10:11:31.497Z,1.78
2023-05-16T10:12:31.529Z,1.77
2023-05-16T10:13:31.540Z,1.79
2023-05-16T10:14:31.567Z,1.75
2023-05-16T10:15:31.748Z,1.73
2023-05-16T10:16:31.727Z,1.73
2023-05-16T10:17:31.721Z,1.74
2023-05-16T10:18:31.898Z,1.72
2023-05-16T10:19:31.789Z,1.70
2023-05-16T10:20:31.856Z,1.71
2023-05-16T10:21:31.872Z,1.70
2023-05-16T10:22:32.144Z,1.70
2023-05-16T10:23:31.955Z,1.69
2023-05-16T10:24:32.027Z,1.69
2023-05-16T10:25:32.638Z,1.70
2023-05-16T10:26:32.116Z,1.71
2023-05-16T10:27:32.230Z,1.69
2023-05-16T10:28:32.192Z,1.65
2023-05-16T10:29:39.950Z,1.66
2023-05-16T10:30:33.284Z,1.66
2023-05-16T10:31:32.734Z,1.66
2023-05-16T10:32:32.223Z,1.66
2023-05-16T10:33:32.178Z,1.66
2023-05-16T10:34:32.228Z,1.64
2023-05-16T10:35:32.178Z,1.44
2023-05-16T10:36:32.179Z,0.93
2023-05-16T10:37:32.811Z,0.60
2023-05-16T10:38:32.141Z,0.55
2023-05-16T10:39:32.206Z,0.60
2023-05-16T10:40:32.173Z,0.61
2023-05-16T10:41:32.227Z,0.59
2023-05-16T10:42:32.230Z,0.69
2023-05-16T10:43:32.308Z,0.84
2023-05-16T10:44:32.261Z,0.97
2023-05-16T10:45:32.538Z,1.08
2023-05-16T10:46:32.710Z,1.13
2023-05-16T10:47:32.314Z,1.22
2023-05-16T10:48:32.457Z,1.33
2023-05-16T10:49:32.426Z,1.39
2023-05-16T10:50:32.505Z,1.47
2023-05-16T10:51:33.465Z,1.54
2023-05-16T10:52:32.527Z,1.56
2023-05-16T10:53:32.505Z,1.65
2023-05-16T10:54:34.099Z,1.57
2023-05-16T10:55:32.541Z,1.68
2023-05-16T10:56:32.584Z,1.64
2023-05-16T10:57:33.158Z,1.76
2023-05-16T10:58:32.746Z,1.79
2023-05-16T10:59:32.785Z,1.70
2023-05-16T11:00:32.868Z,1.70
2023-05-16T11:01:32.880Z,1.51
2023-05-16T11:02:33.077Z,1.74
2023-05-16T11:03:33.059Z,1.75
2023-05-16T11:04:33.028Z,1.65
2023-05-16T11:05:33.092Z,1.67
2023-05-16T11:06:33.148Z,1.66
2023-05-16T11:07:33.221Z,1.67
2023-05-16T11:08:33.448Z,1.65
2023-05-16T11:09:33.334Z,1.53
2023-05-16T11:10:33.381Z,1.13
2023-05-16T11:11:33.435Z,0.99
2023-05-16T11:12:33.511Z,0.95
2023-05-16T11:13:33.596Z,0.74
2023-05-16T11:14:33.622Z,0.71
2023-05-16T11:15:33.679Z,0.73
2023-05-16T11:16:33.732Z,0.64
2023-05-16T11:17:34.645Z,0.61
2023-05-16T11:18:33.960Z,0.53
2023-05-16T11:19:33.827Z,0.52
2023-05-16T11:20:33.939Z,0.50
2023-05-16T11:21:34.167Z,0.51
2023-05-16T11:22:34.032Z,0.53
2023-05-16T11:23:33.894Z,0.60
2023-05-16T11:24:33.884Z,0.60
2023-05-16T11:25:33.871Z,0.61
2023-05-16T11:26:33.876Z,0.60
2023-05-16T11:27:34.173Z,0.56
2023-05-16T11:28:33.864Z,0.61
2023-05-16T11:29:33.870Z,0.64
2023-05-16T11:30:33.876Z,0.75
2023-05-16T11:31:33.934Z,0.85
2023-05-16T11:32:34.229Z,0.91
2023-05-16T11:33:33.909Z,0.96
2023-05-16T11:34:33.923Z,0.98
2023-05-16T11:35:33.869Z,1.03
2023-05-16T11:36:33.863Z,0.97
2023-05-16T11:37:34.189Z,0.94
2023-05-16T11:38:33.901Z,0.91
2023-05-16T11:39:33.969Z,0.80
2023-05-16T11:40:33.890Z,0.64
2023-05-16T11:41:33.900Z,0.58
2023-05-16T11:42:34.640Z,0.58
2023-05-16T11:43:33.880Z,0.72
2023-05-16T11:44:33.885Z,0.76
2023-05-16T11:45:33.908Z,0.76
2023-05-16T11:46:33.937Z,0.81
2023-05-16T11:47:33.917Z,0.88
2023-05-16T11:48:36.681Z,0.93
2023-05-16T11:49:33.917Z,0.99
2023-05-16T11:50:33.872Z,1.05
2023-05-16T11:51:33.877Z,1.06
2023-05-16T11:52:33.949Z,1.03
2023-05-16T11:53:34.661Z,1.07
2023-05-16T11:54:33.865Z,1.09
2023-05-16T11:55:41.925Z,1.09
2023-05-16T11:56:34.892Z,1.10
2023-05-16T11:57:33.843Z,1.09
2023-05-16T11:58:33.886Z,1.10
2023-05-16T11:59:33.814Z,1.10
2023-05-16T12:00:33.850Z,1.14
2023-05-16T12:01:33.843Z,1.16
2023-05-16T12:02:33.866Z,1.13
2023-05-16T12:03:33.998Z,1.16
2023-05-16T12:04:33.987Z,1.22
2023-05-16T12:05:35.028Z,1.23
2023-05-16T12:06:33.944Z,1.06
2023-05-16T12:07:33.949Z,0.71
2023-05-16T12:08:33.950Z,0.60
2023-05-16T12:09:34.058Z,0.49
2023-05-16T12:10:33.957Z,0.50
2023-05-16T12:11:34.017Z,0.50
2023-05-16T12:12:34.007Z,0.50
2023-05-16T12:13:33.993Z,0.50
2023-05-16T12:14:34.049Z,0.51
2023-05-16T12:15:34.072Z,0.51
2023-05-16T12:16:34.104Z,0.57
2023-05-16T12:17:34.178Z,0.63
2023-05-16T12:18:34.178Z,0.69
2023-05-16T12:19:34.239Z,0.73
2023-05-16T12:20:34.197Z,0.75
2023-05-16T12:21:34.220Z,0.77
2023-05-16T12:22:34.237Z,0.80
2023-05-16T12:23:34.229Z,0.82
2023-05-16T12:24:34.280Z,0.87
2023-05-16T12:25:34.305Z,0.84
2023-05-16T12:26:34.311Z,0.88
2023-05-16T12:27:34.402Z,0.86
2023-05-16T12:28:34.333Z,0.85
2023-05-16T12:29:34.375Z,0.90
2023-05-16T12:30:34.372Z,0.93
2023-05-16T12:31:34.447Z,0.92
2023-05-16T12:32:34.499Z,0.92
2023-05-16T12:33:34.533Z,0.94
2023-05-16T12:34:34.440Z,0.98
2023-05-16T12:35:34.481Z,0.98
2023-05-16T12:36:34.490Z,1.01
2023-05-16T12:37:34.540Z,1.01
2023-05-16T12:38:34.545Z,1.01
2023-05-16T12:39:35.034Z,1.01
2023-05-16T12:40:34.591Z,0.97
2023-05-16T12:41:34.581Z,0.98
2023-05-16T12:42:34.599Z,0.99
2023-05-16T12:43:34.602Z,0.97
2023-05-16T12:44:34.628Z,0.85
2023-05-16T12:45:35.621Z,0.80
2023-05-16T12:46:34.769Z,0.83
2023-05-16T12:47:34.784Z,0.86
2023-05-16T12:48:34.794Z,0.90
2023-05-16T12:49:34.868Z,0.91
2023-05-16T12:50:34.886Z,0.93
2023-05-16T12:51:35.730Z,0.92
2023-05-16T12:52:34.915Z,0.89
2023-05-16T12:53:34.949Z,0.91
2023-05-16T12:54:34.991Z,0.90
2023-05-16T12:55:35.024Z,0.91
2023-05-16T12:56:35.019Z,0.87
2023-05-16T12:57:36.402Z,0.86
2023-05-16T12:58:35.183Z,0.90
2023-05-16T12:59:35.053Z,0.91
2023-05-16T13:00:35.044Z,0.90
2023-05-16T13:01:35.147Z,0.89
2023-05-16T13:02:35.116Z,0.89
2023-05-16T13:03:36.317Z,0.88
2023-05-16T13:04:35.025Z,0.86
2023-05-16T13:05:35.159Z,0.85
2023-05-16T13:06:55.751Z,0.86
2023-05-16T13:07:35.988Z,0.86
2023-05-16T13:08:35.089Z,0.86
2023-05-16T13:09:35.019Z,0.86
2023-05-16T13:10:34.984Z,0.85
2023-05-16T13:11:34.975Z,0.85
2023-05-16T13:12:34.933Z,0.86